Ganser Bar, California
Current Conditions -  °F | °C
As of 5:35 AM on Friday 28 Nov 2014 (Local Time) from KCIC Reporting Station
Clear Clear  
Wind Chill:   Ceiling: Unl
Heat Index:   Visibility: 10mi
Dew Point:   Wind: 6mph
Humidity: 100%   Direction: 120°ESE
Pressure: 29.99"   Gusts: NA
Location:  40.0464°N, 121.282°W
Report Text: KCIC 281335Z AUTO 12005KT 10SM CLR 04/04 A2999 RMK AO1
Loading
Personal Weather Stations






























Interactive Weather Map New forecast layout! Learn more

10-Day Weather Forecast

Advertisements
Track Severe Weather on mobile